sensor_id;sensor_type;location;lat;lon;timestamp;pressure;altitude;pressure_sealevel;temperature;humidity
25610;BME280;13479;49.044;8.716;2022-12-24T05:02:19;98814.53;;;11.25;86.91
25610;BME280;13479;49.044;8.716;2022-12-24T05:04:45;98814.41;;;11.17;87.14
25610;BME280;13479;49.044;8.716;2022-12-24T05:07:10;98822.91;;;11.20;86.75
25610;BME280;13479;49.044;8.716;2022-12-24T05:09:35;98824.91;;;11.08;86.86
25610;BME280;13479;49.044;8.716;2022-12-24T05:12:00;98847.25;;;11.16;86.03
25610;BME280;13479;49.044;8.716;2022-12-24T05:14:26;98841.66;;;11.19;85.19
25610;BME280;13479;49.044;8.716;2022-12-24T05:16:51;98835.38;;;11.20;84.90
25610;BME280;13479;49.044;8.716;2022-12-24T05:19:16;98830.75;;;11.22;83.47
25610;BME280;13479;49.044;8.716;2022-12-24T05:21:41;98799.72;;;11.22;83.30
25610;BME280;13479;49.044;8.716;2022-12-24T05:24:09;98770.47;;;11.12;83.97
25610;BME280;13479;49.044;8.716;2022-12-24T05:26:55;98774.44;;;11.08;83.60
25610;BME280;13479;49.044;8.716;2022-12-24T05:29:21;98755.56;;;11.02;84.39
25610;BME280;13479;49.044;8.716;2022-12-24T05:31:47;98744.34;;;10.98;84.42
25610;BME280;13479;49.044;8.716;2022-12-24T05:34:13;98771.78;;;11.08;83.81
25610;BME280;13479;49.044;8.716;2022-12-24T05:36:39;98790.09;;;11.02;83.78
25610;BME280;13479;49.044;8.716;2022-12-24T05:39:05;98799.97;;;11.09;82.81
25610;BME280;13479;49.044;8.716;2022-12-24T05:41:31;98770.91;;;10.98;83.09
25610;BME280;13479;49.044;8.716;2022-12-24T05:43:56;98776.53;;;10.95;83.41
25610;BME280;13479;49.044;8.716;2022-12-24T05:46:22;98796.38;;;10.91;82.70
25610;BME280;13479;49.044;8.716;2022-12-24T05:48:49;98791.91;;;10.91;82.35
25610;BME280;13479;49.044;8.716;2022-12-24T05:51:15;98804.59;;;10.88;82.67
25610;BME280;13479;49.044;8.716;2022-12-24T05:53:44;98800.41;;;10.85;82.14
25610;BME280;13479;49.044;8.716;2022-12-24T05:56:12;98804.75;;;10.86;81.84
25610;BME280;13479;49.044;8.716;2022-12-24T05:58:39;98802.09;;;10.76;82.00
25610;BME280;13479;49.044;8.716;2022-12-24T06:01:05;98812.88;;;10.85;81.47
25610;BME280;13479;49.044;8.716;2022-12-24T06:03:31;98806.72;;;10.84;81.39
25610;BME280;13479;49.044;8.716;2022-12-24T06:06:03;98810.34;;;10.83;81.14
25610;BME280;13479;49.044;8.716;2022-12-24T06:08:29;98794.81;;;10.78;81.19
25610;BME280;13479;49.044;8.716;2022-12-24T06:10:59;98788.81;;;10.76;81.26
25610;BME280;13479;49.044;8.716;2022-12-24T06:13:26;98790.78;;;10.74;81.16
25610;BME280;13479;49.044;8.716;2022-12-24T06:15:59;98802.22;;;10.75;80.88
25610;BME280;13479;49.044;8.716;2022-12-24T06:18:24;98813.41;;;10.78;80.59
25610;BME280;13479;49.044;8.716;2022-12-24T06:20:51;98817.19;;;10.95;79.16
25610;BME280;13479;49.044;8.716;2022-12-24T06:23:16;98798.63;;;10.86;79.48
25610;BME280;13479;49.044;8.716;2022-12-24T06:25:42;98771.78;;;10.79;79.59
25610;BME280;13479;49.044;8.716;2022-12-24T06:28:07;98776.50;;;10.75;79.94
25610;BME280;13479;49.044;8.716;2022-12-24T06:30:32;98767.88;;;10.73;80.30
25610;BME280;13479;49.044;8.716;2022-12-24T06:32:57;98769.94;;;10.79;79.86
25610;BME280;13479;49.044;8.716;2022-12-24T06:35:23;98791.34;;;10.78;79.94
25610;BME280;13479;49.044;8.716;2022-12-24T06:37:48;98783.78;;;10.73;79.83
25610;BME280;13479;49.044;8.716;2022-12-24T06:40:13;98824.75;;;10.80;79.42
25610;BME280;13479;49.044;8.716;2022-12-24T06:42:39;98820.13;;;10.82;78.87
25610;BME280;13479;49.044;8.716;2022-12-24T06:45:04;98824.59;;;10.82;79.06
25610;BME280;13479;49.044;8.716;2022-12-24T06:47:30;98840.53;;;10.92;78.31
25610;BME280;13479;49.044;8.716;2022-12-24T06:49:55;98835.09;;;10.84;78.35
25610;BME280;13479;49.044;8.716;2022-12-24T06:52:20;98833.53;;;10.91;78.00
25610;BME280;13479;49.044;8.716;2022-12-24T06:54:45;98815.53;;;10.85;78.06
25610;BME280;13479;49.044;8.716;2022-12-24T06:57:11;98802.25;;;10.85;77.90
25610;BME280;13479;49.044;8.716;2022-12-24T06:59:36;98826.56;;;10.90;78.26
25610;BME280;13479;49.044;8.716;2022-12-24T07:02:01;98813.16;;;10.91;78.34
25610;BME280;13479;49.044;8.716;2022-12-24T07:04:26;98807.81;;;11.01;78.29
25610;BME280;13479;49.044;8.716;2022-12-24T07:06:52;98801.38;;;11.04;78.56
25610;BME280;13479;49.044;8.716;2022-12-24T07:09:17;98811.47;;;11.10;78.53
25610;BME280;13479;49.044;8.716;2022-12-24T07:11:42;98835.09;;;11.03;78.57
25610;BME280;13479;49.044;8.716;2022-12-24T07:14:07;98837.31;;;10.98;78.73
25610;BME280;13479;49.044;8.716;2022-12-24T07:16:33;98844.16;;;10.91;78.37
25610;BME280;13479;49.044;8.716;2022-12-24T07:18:58;98818.03;;;10.86;78.98
25610;BME280;13479;49.044;8.716;2022-12-24T07:21:23;98836.34;;;10.89;78.36
25610;BME280;13479;49.044;8.716;2022-12-24T07:23:48;98870.19;;;10.97;78.20
25610;BME280;13479;49.044;8.716;2022-12-24T07:26:14;98855.91;;;10.98;78.08
25610;BME280;13479;49.044;8.716;2022-12-24T07:28:39;98867.13;;;11.02;78.05
25610;BME280;13479;49.044;8.716;2022-12-24T07:31:04;98857.03;;;11.05;77.64
25610;BME280;13479;49.044;8.716;2022-12-24T07:33:29;98850.06;;;11.04;77.68
25610;BME280;13479;49.044;8.716;2022-12-24T07:36:03;98856.06;;;11.06;76.96
25610;BME280;13479;49.044;8.716;2022-12-24T07:38:29;98844.88;;;11.03;77.22
25610;BME280;13479;49.044;8.716;2022-12-24T07:40:55;98832.16;;;11.06;77.09
25610;BME280;13479;49.044;8.716;2022-12-24T07:43:21;98831.31;;;11.06;77.35
25610;BME280;13479;49.044;8.716;2022-12-24T07:45:46;98859.84;;;11.13;76.42
25610;BME280;13479;49.044;8.716;2022-12-24T07:48:11;98859.00;;;11.03;77.13
25610;BME280;13479;49.044;8.716;2022-12-24T07:50:37;98841.09;;;11.05;77.06
25610;BME280;13479;49.044;8.716;2022-12-24T07:53:02;98861.94;;;11.10;76.96
25610;BME280;13479;49.044;8.716;2022-12-24T07:55:27;98852.03;;;11.12;76.93
25610;BME280;13479;49.044;8.716;2022-12-24T07:57:52;98860.28;;;11.19;77.17
25610;BME280;13479;49.044;8.716;2022-12-24T08:00:18;98837.03;;;11.21;77.54
25610;BME280;13479;49.044;8.716;2022-12-24T08:02:43;98853.69;;;11.23;77.70
25610;BME280;13479;49.044;8.716;2022-12-24T08:05:09;98855.91;;;11.37;76.91
25610;BME280;13479;49.044;8.716;2022-12-24T08:07:34;98866.53;;;11.37;77.04
25610;BME280;13479;49.044;8.716;2022-12-24T08:09:59;98875.22;;;11.39;77.11
25610;BME280;13479;49.044;8.716;2022-12-24T08:12:24;98864.97;;;11.44;77.01
25610;BME280;13479;49.044;8.716;2022-12-24T08:14:50;98884.44;;;11.45;77.10
25610;BME280;13479;49.044;8.716;2022-12-24T08:17:15;98882.34;;;11.49;77.20
25610;BME280;13479;49.044;8.716;2022-12-24T08:19:40;98886.81;;;11.58;76.53
25610;BME280;13479;49.044;8.716;2022-12-24T08:22:06;98883.59;;;11.64;76.88
25610;BME280;13479;49.044;8.716;2022-12-24T08:24:31;98902.03;;;11.76;76.62
25610;BME280;13479;49.044;8.716;2022-12-24T08:26:56;98910.84;;;11.86;75.96
25610;BME280;13479;49.044;8.716;2022-12-24T08:29:22;98919.50;;;11.98;75.46
25610;BME280;13479;49.044;8.716;2022-12-24T08:31:47;98922.44;;;12.04;74.85
25610;BME280;13479;49.044;8.716;2022-12-24T08:34:12;98934.03;;;12.13;73.85
25610;BME280;13479;49.044;8.716;2022-12-24T08:36:37;98919.88;;;12.13;73.61
25610;BME280;13479;49.044;8.716;2022-12-24T08:39:03;98906.75;;;12.11;73.18
25610;BME280;13479;49.044;8.716;2022-12-24T08:41:32;98895.66;;;12.16;73.46
25610;BME280;13479;49.044;8.716;2022-12-24T08:43:57;98897.34;;;12.17;72.89
25610;BME280;13479;49.044;8.716;2022-12-24T08:46:23;98906.13;;;12.17;72.34
25610;BME280;13479;49.044;8.716;2022-12-24T08:48:48;98888.75;;;12.23;72.73
25610;BME280;13479;49.044;8.716;2022-12-24T08:51:13;98898.22;;;12.35;72.30
25610;BME280;13479;49.044;8.716;2022-12-24T08:53:39;98913.31;;;12.45;71.99
25610;BME280;13479;49.044;8.716;2022-12-24T08:56:07;98934.72;;;12.81;70.60
25610;BME280;13479;49.044;8.716;2022-12-24T08:58:33;98948.56;;;13.12;69.81
25610;BME280;13479;49.044;8.716;2022-12-24T09:00:59;98936.03;;;13.41;69.12
25610;BME280;13479;49.044;8.716;2022-12-24T09:03:24;98941.72;;;13.82;67.40
25610;BME280;13479;49.044;8.716;2022-12-24T09:05:49;98950.31;;;14.20;66.09
25610;BME280;13479;49.044;8.716;2022-12-24T09:08:15;98925.81;;;14.60;65.17
25610;BME280;13479;49.044;8.716;2022-12-24T09:10:40;98930.94;;;14.79;63.29
25610;BME280;13479;49.044;8.716;2022-12-24T09:13:05;98912.75;;;14.91;63.15
25610;BME280;13479;49.044;8.716;2022-12-24T09:15:31;98923.69;;;15.23;61.53
25610;BME280;13479;49.044;8.716;2022-12-24T09:17:56;98916.31;;;15.83;60.30
25610;BME280;13479;49.044;8.716;2022-12-24T09:20:21;98934.97;;;16.57;57.41
25610;BME280;13479;49.044;8.716;2022-12-24T09:22:47;98927.84;;;17.36;54.55
25610;BME280;13479;49.044;8.716;2022-12-24T09:25:12;98919.56;;;17.69;52.97
25610;BME280;13479;49.044;8.716;2022-12-24T09:27:37;98913.19;;;18.23;52.50
25610;BME280;13479;49.044;8.716;2022-12-24T09:30:04;98931.38;;;18.88;50.91
25610;BME280;13479;49.044;8.716;2022-12-24T09:32:30;98928.81;;;18.79;49.86
25610;BME280;13479;49.044;8.716;2022-12-24T09:34:55;98926.22;;;18.41;50.02
25610;BME280;13479;49.044;8.716;2022-12-24T09:37:20;98934.69;;;18.23;49.99
25610;BME280;13479;49.044;8.716;2022-12-24T09:39:45;98923.63;;;18.03;50.74
25610;BME280;13479;49.044;8.716;2022-12-24T09:45:02;98928.22;;;17.33;51.26
25610;BME280;13479;49.044;8.716;2022-12-24T09:47:40;98910.88;;;16.89;51.75
25610;BME280;13479;49.044;8.716;2022-12-24T09:52:47;98814.25;;;16.11;54.06
25610;BME280;13479;49.044;8.716;2022-12-24T09:55:26;98774.84;;;15.71;55.39
25610;BME280;13479;49.044;8.716;2022-12-24T09:57:53;98762.41;;;15.31;57.19
25610;BME280;13479;49.044;8.716;2022-12-24T10:00:23;98749.56;;;15.01;58.63
25610;BME280;13479;49.044;8.716;2022-12-24T10:02:50;98740.03;;;14.74;59.59
25610;BME280;13479;49.044;8.716;2022-12-24T10:05:17;98744.16;;;14.51;60.61
25610;BME280;13479;49.044;8.716;2022-12-24T10:07:53;98746.44;;;14.21;62.45
25610;BME280;13479;49.044;8.716;2022-12-24T10:10:41;98745.03;;;14.01;63.87
25610;BME280;13479;49.044;8.716;2022-12-24T10:13:38;98766.25;;;13.76;64.93
25610;BME280;13479;49.044;8.716;2022-12-24T10:21:43;98790.66;;;13.37;68.40
25610;BME280;13479;49.044;8.716;2022-12-24T10:24:19;98814.31;;;13.32;68.90
25610;BME280;13479;49.044;8.716;2022-12-24T10:27:00;98817.56;;;13.25;69.27
25610;BME280;13479;49.044;8.716;2022-12-24T10:29:29;98821.66;;;13.38;69.58
25610;BME280;13479;49.044;8.716;2022-12-24T10:34:41;98845.91;;;13.44;70.14
25610;BME280;13479;49.044;8.716;2022-12-24T10:37:14;98846.50;;;13.56;70.01
25610;BME280;13479;49.044;8.716;2022-12-24T10:39:41;98867.91;;;13.65;69.74
25610;BME280;13479;49.044;8.716;2022-12-24T10:42:08;98866.22;;;13.64;70.22
25610;BME280;13479;49.044;8.716;2022-12-24T10:44:33;98875.25;;;13.71;69.43
25610;BME280;13479;49.044;8.716;2022-12-24T10:46:59;98881.28;;;13.73;69.76
25610;BME280;13479;49.044;8.716;2022-12-24T10:49:43;98917.47;;;13.75;69.22
25610;BME280;13479;49.044;8.716;2022-12-24T10:52:12;98932.38;;;13.78;69.15
25610;BME280;13479;49.044;8.716;2022-12-24T10:57:29;98895.25;;;13.67;69.43
25610;BME280;13479;49.044;8.716;2022-12-24T10:59:55;98881.50;;;13.53;70.32
25610;BME280;13479;49.044;8.716;2022-12-24T11:02:34;98864.09;;;13.49;70.42
25610;BME280;13479;49.044;8.716;2022-12-24T11:05:03;98856.97;;;13.50;70.56
25610;BME280;13479;49.044;8.716;2022-12-24T11:07:30;98870.81;;;14.06;70.06
25610;BME280;13479;49.044;8.716;2022-12-24T11:10:01;98929.97;;;14.89;68.71
25610;BME280;13479;49.044;8.716;2022-12-24T11:12:29;99010.59;;;15.19;67.27
25610;BME280;13479;49.044;8.716;2022-12-24T11:15:15;99032.94;;;15.09;66.10
25610;BME280;13479;49.044;8.716;2022-12-24T11:17:42;99019.00;;;14.97;65.71
25610;BME280;13479;49.044;8.716;2022-12-24T11:20:17;99017.13;;;14.81;65.64
25610;BME280;13479;49.044;8.716;2022-12-24T11:22:48;98993.78;;;14.65;66.16
25610;BME280;13479;49.044;8.716;2022-12-24T11:25:19;98996.81;;;14.97;66.09
25610;BME280;13479;49.044;8.716;2022-12-24T11:27:47;99010.25;;;15.22;65.51
25610;BME280;13479;49.044;8.716;2022-12-24T11:32:39;99029.00;;;15.38;64.40
25610;BME280;13479;49.044;8.716;2022-12-24T11:35:16;99018.63;;;15.27;64.24
25610;BME280;13479;49.044;8.716;2022-12-24T11:37:42;98992.03;;;15.17;64.75
25610;BME280;13479;49.044;8.716;2022-12-24T11:40:19;99010.25;;;15.13;64.31
25610;BME280;13479;49.044;8.716;2022-12-24T11:42:46;98970.78;;;15.07;64.77
25610;BME280;13479;49.044;8.716;2022-12-24T11:45:28;98961.25;;;14.96;64.99
25610;BME280;13479;49.044;8.716;2022-12-24T11:47:55;98987.06;;;14.79;64.22
25610;BME280;13479;49.044;8.716;2022-12-24T11:50:30;98968.34;;;14.53;65.05
25610;BME280;13479;49.044;8.716;2022-12-24T11:55:52;98879.50;;;14.08;66.30
25610;BME280;13479;49.044;8.716;2022-12-24T12:01:44;98837.84;;;13.89;67.11
25610;BME280;13479;49.044;8.716;2022-12-24T12:06:46;98840.28;;;13.74;67.45
25610;BME280;13479;49.044;8.716;2022-12-24T12:11:49;98829.75;;;13.99;68.03
25610;BME280;13479;49.044;8.716;2022-12-24T12:14:25;98890.38;;;14.15;67.17
25610;BME280;13479;49.044;8.716;2022-12-24T12:22:51;98986.19;;;14.71;65.44
25610;BME280;13479;49.044;8.716;2022-12-24T12:25:23;98994.75;;;14.82;65.16
25610;BME280;13479;49.044;8.716;2022-12-24T12:27:53;99043.22;;;14.88;63.92
25610;BME280;13479;49.044;8.716;2022-12-24T12:30:21;99038.16;;;14.76;64.23
25610;BME280;13479;49.044;8.716;2022-12-24T12:35:39;98970.50;;;14.49;65.22
25610;BME280;13479;49.044;8.716;2022-12-24T12:38:26;98974.34;;;14.47;65.09
25610;BME280;13479;49.044;8.716;2022-12-24T12:43:55;98991.59;;;14.61;64.53
25610;BME280;13479;49.044;8.716;2022-12-24T12:49:23;98988.06;;;14.52;65.19
25610;BME280;13479;49.044;8.716;2022-12-24T12:52:07;98959.53;;;14.61;65.46
25610;BME280;13479;49.044;8.716;2022-12-24T12:54:44;98973.50;;;14.73;65.05
25610;BME280;13479;49.044;8.716;2022-12-24T12:57:17;98975.19;;;14.74;64.99
25610;BME280;13479;49.044;8.716;2022-12-24T13:08:22;99027.16;;;14.79;63.03
25610;BME280;13479;49.044;8.716;2022-12-24T13:19:38;98984.50;;;14.43;63.64
25610;BME280;13479;49.044;8.716;2022-12-24T13:21:55;98953.41;;;14.34;64.11
25610;BME280;13479;49.044;8.716;2022-12-24T13:24:23;98924.69;;;14.36;64.64
25610;BME280;13479;49.044;8.716;2022-12-24T13:27:20;98914.34;;;14.33;64.31
25610;BME280;13479;49.044;8.716;2022-12-24T13:30:02;98893.78;;;14.25;64.72
25610;BME280;13479;49.044;8.716;2022-12-24T13:32:45;98889.59;;;14.23;64.95
25610;BME280;13479;49.044;8.716;2022-12-24T13:37:46;98911.97;;;14.21;64.18
25610;BME280;13479;49.044;8.716;2022-12-24T13:40:13;98925.56;;;14.10;64.39
25610;BME280;13479;49.044;8.716;2022-12-24T13:50:24;98858.78;;;13.49;65.49
25610;BME280;13479;49.044;8.716;2022-12-24T13:52:53;98832.09;;;13.31;66.07
25610;BME280;13479;49.044;8.716;2022-12-24T13:55:19;98829.22;;;13.24;66.34
25610;BME280;13479;49.044;8.716;2022-12-24T13:57:53;98818.97;;;13.11;66.35
25610;BME280;13479;49.044;8.716;2022-12-24T14:05:31;98823.13;;;12.78;67.66
25610;BME280;13479;49.044;8.716;2022-12-24T14:08:00;98828.78;;;12.75;68.19
25610;BME280;13479;49.044;8.716;2022-12-24T14:10:35;98830.38;;;12.67;68.74
25610;BME280;13479;49.044;8.716;2022-12-24T14:13:02;98828.38;;;12.70;68.81
25610;BME280;13479;49.044;8.716;2022-12-24T14:18:09;98839.34;;;12.48;69.40
25610;BME280;13479;49.044;8.716;2022-12-24T14:20:36;98846.09;;;12.43;69.88
25610;BME280;13479;49.044;8.716;2022-12-24T14:23:03;98841.31;;;12.46;70.09
25610;BME280;13479;49.044;8.716;2022-12-24T14:25:30;98855.34;;;12.39;70.29
25610;BME280;13479;49.044;8.716;2022-12-24T14:27:58;98848.63;;;12.34;70.38
25610;BME280;13479;49.044;8.716;2022-12-24T14:30:29;98849.81;;;12.22;70.92
25610;BME280;13479;49.044;8.716;2022-12-24T14:32:56;98863.44;;;12.19;70.97
25610;BME280;13479;49.044;8.716;2022-12-24T14:35:25;98872.84;;;12.13;71.31
25610;BME280;13479;49.044;8.716;2022-12-24T14:38:01;98895.56;;;12.08;71.17
25610;BME280;13479;49.044;8.716;2022-12-24T14:40:29;98890.25;;;11.98;71.67
25610;BME280;13479;49.044;8.716;2022-12-24T14:46:06;98905.97;;;11.81;71.86
25610;BME280;13479;49.044;8.716;2022-12-24T14:48:56;98907.50;;;11.74;72.10
25610;BME280;13479;49.044;8.716;2022-12-24T14:51:35;98905.97;;;11.71;72.44
25610;BME280;13479;49.044;8.716;2022-12-24T14:56:37;98921.38;;;11.58;73.49
25610;BME280;13479;49.044;8.716;2022-12-24T14:59:14;98928.25;;;11.51;73.44
25610;BME280;13479;49.044;8.716;2022-12-24T15:01:40;98936.75;;;11.44;73.98
25610;BME280;13479;49.044;8.716;2022-12-24T15:06:38;98945.16;;;11.40;74.41
25610;BME280;13479;49.044;8.716;2022-12-24T15:09:13;98947.41;;;11.35;74.61
25610;BME280;13479;49.044;8.716;2022-12-24T15:11:43;98961.53;;;11.35;74.90
25610;BME280;13479;49.044;8.716;2022-12-24T15:14:09;98966.13;;;11.33;74.97
25610;BME280;13479;49.044;8.716;2022-12-24T15:16:35;98976.75;;;11.33;75.11
25610;BME280;13479;49.044;8.716;2022-12-24T15:19:06;98984.06;;;11.31;75.28
25610;BME280;13479;49.044;8.716;2022-12-24T15:21:34;98980.41;;;11.32;75.42
25610;BME280;13479;49.044;8.716;2022-12-24T15:24:02;98988.81;;;11.37;75.12
25610;BME280;13479;49.044;8.716;2022-12-24T15:26:31;98993.56;;;11.43;74.98
25610;BME280;13479;49.044;8.716;2022-12-24T15:29:00;99011.34;;;11.43;74.66
25610;BME280;13479;49.044;8.716;2022-12-24T15:31:27;99014.81;;;11.43;74.72
25610;BME280;13479;49.044;8.716;2022-12-24T15:33:54;99004.50;;;11.40;75.17
25610;BME280;13479;49.044;8.716;2022-12-24T15:36:27;98997.91;;;11.44;75.07
25610;BME280;13479;49.044;8.716;2022-12-24T15:38:55;99004.50;;;11.40;75.19
25610;BME280;13479;49.044;8.716;2022-12-24T15:41:28;98993.97;;;11.39;75.25
25610;BME280;13479;49.044;8.716;2022-12-24T15:43:59;99007.81;;;11.33;75.17
25610;BME280;13479;49.044;8.716;2022-12-24T15:46:27;99003.91;;;11.27;75.72
25610;BME280;13479;49.044;8.716;2022-12-24T15:48:54;98999.81;;;11.23;75.98
25610;BME280;13479;49.044;8.716;2022-12-24T15:51:23;99009.91;;;11.19;75.94
25610;BME280;13479;49.044;8.716;2022-12-24T15:53:56;99013.94;;;11.13;76.04
25610;BME280;13479;49.044;8.716;2022-12-24T15:56:35;99009.44;;;11.04;76.14
25610;BME280;13479;49.044;8.716;2022-12-24T16:01:51;99008.69;;;10.82;76.50
25610;BME280;13479;49.044;8.716;2022-12-24T16:04:24;99012.16;;;10.83;76.42
25610;BME280;13479;49.044;8.716;2022-12-24T16:07:01;99020.28;;;10.81;76.56
25610;BME280;13479;49.044;8.716;2022-12-24T16:09:42;99026.69;;;10.79;76.67
25610;BME280;13479;49.044;8.716;2022-12-24T16:12:25;99036.47;;;10.78;76.69
25610;BME280;13479;49.044;8.716;2022-12-24T16:14:54;99034.25;;;10.84;77.01
25610;BME280;13479;49.044;8.716;2022-12-24T16:17:23;99048.53;;;10.92;77.04
25610;BME280;13479;49.044;8.716;2022-12-24T16:19:51;99053.03;;;10.92;77.13
25610;BME280;13479;49.044;8.716;2022-12-24T16:22:19;99044.06;;;10.93;77.20
25610;BME280;13479;49.044;8.716;2022-12-24T16:25:02;99042.41;;;10.92;77.33
25610;BME280;13479;49.044;8.716;2022-12-24T16:27:39;99041.31;;;11.04;77.04
25610;BME280;13479;49.044;8.716;2022-12-24T16:30:05;99059.91;;;11.04;76.71
25610;BME280;13479;49.044;8.716;2022-12-24T16:32:35;99067.00;;;10.94;76.75
25610;BME280;13479;49.044;8.716;2022-12-24T16:35:03;99053.31;;;10.99;77.03
25610;BME280;13479;49.044;8.716;2022-12-24T16:37:29;99055.81;;;10.90;77.06
25610;BME280;13479;49.044;8.716;2022-12-24T16:39:54;99046.28;;;10.88;77.61
25610;BME280;13479;49.044;8.716;2022-12-24T16:42:19;99052.66;;;11.06;77.17
25610;BME280;13479;49.044;8.716;2022-12-24T16:45:04;99095.16;;;11.06;76.64
25610;BME280;13479;49.044;8.716;2022-12-24T16:47:33;99097.25;;;11.03;76.58
25610;BME280;13479;49.044;8.716;2022-12-24T16:50:00;99081.88;;;11.06;76.64
25610;BME280;13479;49.044;8.716;2022-12-24T16:52:28;99109.03;;;11.10;76.27
25610;BME280;13479;49.044;8.716;2022-12-24T16:54:54;99103.66;;;11.00;76.52
25610;BME280;13479;49.044;8.716;2022-12-24T16:57:20;99075.38;;;10.89;77.08
25610;BME280;13479;49.044;8.716;2022-12-24T16:59:46;99053.56;;;10.86;77.40
25610;BME280;13479;49.044;8.716;2022-12-24T17:02:14;99062.41;;;10.96;77.22
25610;BME280;13479;49.044;8.716;2022-12-24T17:04:39;99110.66;;;11.01;76.45
25610;BME280;13479;49.044;8.716;2022-12-24T17:07:05;99128.53;;;10.99;76.24
25610;BME280;13479;49.044;8.716;2022-12-24T17:09:30;99101.38;;;10.86;76.96
25610;BME280;13479;49.044;8.716;2022-12-24T17:11:56;99076.47;;;10.87;77.02
25610;BME280;13479;49.044;8.716;2022-12-24T17:14:21;99092.31;;;10.98;76.46
25610;BME280;13479;49.044;8.716;2022-12-24T17:16:46;99133.34;;;11.05;75.94
25610;BME280;13479;49.044;8.716;2022-12-24T17:19:12;99136.41;;;11.01;76.25
25610;BME280;13479;49.044;8.716;2022-12-24T17:21:37;99136.06;;;10.94;76.37
25610;BME280;13479;49.044;8.716;2022-12-24T17:24:02;99101.09;;;10.89;77.04
25610;BME280;13479;49.044;8.716;2022-12-24T17:26:28;99073.13;;;10.85;77.08
25610;BME280;13479;49.044;8.716;2022-12-24T17:28:54;99069.50;;;10.86;77.32
25610;BME280;13479;49.044;8.716;2022-12-24T17:31:20;99066.22;;;10.72;77.63
25610;BME280;13479;49.044;8.716;2022-12-24T17:33:47;99073.63;;;10.69;78.21
25610;BME280;13479;49.044;8.716;2022-12-24T17:36:13;99082.34;;;10.59;78.65
25610;BME280;13479;49.044;8.716;2022-12-24T17:38:38;99088.84;;;10.45;78.85
25610;BME280;13479;49.044;8.716;2022-12-24T17:41:06;99103.06;;;10.44;79.70
25610;BME280;13479;49.044;8.716;2022-12-24T17:43:32;99119.97;;;10.43;79.87
25610;BME280;13479;49.044;8.716;2022-12-24T17:45:58;99137.19;;;10.49;79.96
25610;BME280;13479;49.044;8.716;2022-12-24T17:48:23;99142.56;;;10.59;79.65
25610;BME280;13479;49.044;8.716;2022-12-24T17:50:49;99165.53;;;10.70;78.81
25610;BME280;13479;49.044;8.716;2022-12-24T17:53:14;99185.72;;;10.72;78.68
25610;BME280;13479;49.044;8.716;2022-12-24T17:55:40;99181.81;;;10.76;78.41
25610;BME280;13479;49.044;8.716;2022-12-24T17:58:07;99175.09;;;10.72;78.20
25610;BME280;13479;49.044;8.716;2022-12-24T18:00:32;99173.41;;;10.71;78.37
25610;BME280;13479;49.044;8.716;2022-12-24T18:02:58;99159.41;;;10.69;78.33
25610;BME280;13479;49.044;8.716;2022-12-24T18:05:23;99155.22;;;10.66;78.44
25610;BME280;13479;49.044;8.716;2022-12-24T18:07:48;99159.47;;;10.79;78.09
25610;BME280;13479;49.044;8.716;2022-12-24T18:10:14;99181.47;;;10.91;77.26
25610;BME280;13479;49.044;8.716;2022-12-24T18:12:39;99173.78;;;10.88;76.97
25610;BME280;13479;49.044;8.716;2022-12-24T18:15:05;99157.41;;;10.82;77.27
25610;BME280;13479;49.044;8.716;2022-12-24T18:17:30;99142.44;;;10.81;77.19
25610;BME280;13479;49.044;8.716;2022-12-24T18:19:55;99122.50;;;10.66;77.92
25610;BME280;13479;49.044;8.716;2022-12-24T18:22:21;99087.06;;;10.56;78.38
25610;BME280;13479;49.044;8.716;2022-12-24T18:24:46;99088.75;;;10.57;78.95
25610;BME280;13479;49.044;8.716;2022-12-24T18:27:11;99106.56;;;10.66;78.98
25610;BME280;13479;49.044;8.716;2022-12-24T18:29:36;99119.19;;;10.74;78.32
25610;BME280;13479;49.044;8.716;2022-12-24T18:32:05;99144.94;;;10.83;78.20
25610;BME280;13479;49.044;8.716;2022-12-24T18:34:30;99170.44;;;10.86;77.71
25610;BME280;13479;49.044;8.716;2022-12-24T18:36:56;99163.28;;;10.86;77.76
25610;BME280;13479;49.044;8.716;2022-12-24T18:39:21;99144.50;;;10.78;78.19
25610;BME280;13479;49.044;8.716;2022-12-24T18:41:47;99127.72;;;10.77;78.36
25610;BME280;13479;49.044;8.716;2022-12-24T18:44:13;99123.13;;;10.79;78.59
25610;BME280;13479;49.044;8.716;2022-12-24T18:46:38;99141.47;;;10.82;78.21
25610;BME280;13479;49.044;8.716;2022-12-24T18:49:04;99145.22;;;10.80;78.44
25610;BME280;13479;49.044;8.716;2022-12-24T18:51:31;99149.19;;;10.86;78.18
25610;BME280;13479;49.044;8.716;2022-12-24T18:53:58;99159.53;;;10.89;78.22
25610;BME280;13479;49.044;8.716;2022-12-24T18:56:24;99174.09;;;10.94;77.65
25610;BME280;13479;49.044;8.716;2022-12-24T18:58:55;99174.94;;;10.95;77.47
25610;BME280;13479;49.044;8.716;2022-12-24T19:01:23;99169.88;;;10.92;77.41
25610;BME280;13479;49.044;8.716;2022-12-24T19:03:49;99131.66;;;10.83;78.50
25610;BME280;13479;49.044;8.716;2022-12-24T19:06:15;99114.19;;;10.80;78.37
25610;BME280;13479;49.044;8.716;2022-12-24T19:08:41;99094.00;;;10.68;78.91
25610;BME280;13479;49.044;8.716;2022-12-24T19:11:06;99092.50;;;10.75;78.85
25610;BME280;13479;49.044;8.716;2022-12-24T19:13:32;99093.03;;;10.69;79.27
25610;BME280;13479;49.044;8.716;2022-12-24T19:15:57;99108.31;;;10.77;78.96
25610;BME280;13479;49.044;8.716;2022-12-24T19:18:23;99106.63;;;10.76;79.36
25610;BME280;13479;49.044;8.716;2022-12-24T19:20:49;99106.56;;;10.66;79.46
25610;BME280;13479;49.044;8.716;2022-12-24T19:23:14;99103.97;;;10.55;80.51
25610;BME280;13479;49.044;8.716;2022-12-24T19:25:39;99121.34;;;10.59;80.56
25610;BME280;13479;49.044;8.716;2022-12-24T19:28:05;99128.50;;;10.68;80.43
25610;BME280;13479;49.044;8.716;2022-12-24T19:30:39;99142.31;;;10.62;80.55
25610;BME280;13479;49.044;8.716;2022-12-24T19:33:08;99142.31;;;10.62;80.98
25610;BME280;13479;49.044;8.716;2022-12-24T19:35:34;99156.28;;;10.64;80.45
25610;BME280;13479;49.044;8.716;2022-12-24T19:37:59;99173.06;;;10.64;80.35